METAR Data
IDs: Format: Raw Decoded Include TAF

Data at: 0742 UTC 18 Sep 2021

KORS 180735Z AUTO 17006G11KT 9SM -RA FEW050 OVC065 14/14 A2951 RMK AO2